createdAt,value
2019-03-09T00:01:51.170Z,5.97
2019-03-09T00:04:21.032Z,6.80
2019-03-09T00:06:50.701Z,4.93
2019-03-09T00:09:20.487Z,7.80
2019-03-09T00:11:50.157Z,7.03
2019-03-09T00:14:19.894Z,6.97
2019-03-09T00:16:49.616Z,5.83
2019-03-09T00:19:19.418Z,5.53
2019-03-09T00:21:49.150Z,6.10
2019-03-09T00:24:37.838Z,6.47
2019-03-09T00:27:34.794Z,5.27
2019-03-09T00:30:16.438Z,7.27
2019-03-09T00:32:46.119Z,5.33
2019-03-09T00:35:15.957Z,8.10
2019-03-09T00:37:45.647Z,5.10
2019-03-09T00:40:15.803Z,6.03
2019-03-09T00:42:45.484Z,5.20
2019-03-09T00:45:15.229Z,10.33
2019-03-09T00:47:44.977Z,4.90
2019-03-09T00:50:14.859Z,7.63
2019-03-09T00:52:44.560Z,7.33
2019-03-09T00:55:14.480Z,5.57
2019-03-09T00:57:44.205Z,8.03
2019-03-09T01:00:16.739Z,6.13
2019-03-09T01:02:46.527Z,8.27
2019-03-09T01:05:16.928Z,4.80
2019-03-09T01:07:46.814Z,6.67
2019-03-09T01:10:17.576Z,6.57
2019-03-09T01:12:47.338Z,9.23
2019-03-09T01:15:17.297Z,4.50
2019-03-09T01:17:47.382Z,9.40
2019-03-09T01:20:17.911Z,5.23
2019-03-09T01:22:47.689Z,4.40
2019-03-09T01:25:17.774Z,6.13
2019-03-09T01:27:47.535Z,3.63
2019-03-09T01:30:18.298Z,6.77
2019-03-09T01:32:48.341Z,7.13
2019-03-09T01:35:18.122Z,2.90
2019-03-09T01:37:47.876Z,6.23
2019-03-09T01:40:17.775Z,6.07
2019-03-09T01:42:47.553Z,6.60
2019-03-09T01:45:17.727Z,5.13
2019-03-09T01:47:47.429Z,3.13
2019-03-09T01:50:17.781Z,7.27
2019-03-09T01:52:47.574Z,4.83
2019-03-09T01:55:17.435Z,3.43
2019-03-09T01:57:47.216Z,3.23
2019-03-09T02:00:17.400Z,3.47
2019-03-09T02:02:47.240Z,5.23
2019-03-09T02:05:17.087Z,3.30
2019-03-09T02:07:46.884Z,3.33
2019-03-09T02:10:17.326Z,5.47
2019-03-09T02:12:47.042Z,4.50
2019-03-09T02:15:17.378Z,4.87
2019-03-09T02:17:47.090Z,4.00
2019-03-09T02:20:17.074Z,3.33
2019-03-09T02:22:46.929Z,2.40
2019-03-09T02:25:16.748Z,3.27
2019-03-09T02:27:46.447Z,5.00
2019-03-09T02:30:16.140Z,3.57
2019-03-09T02:32:45.927Z,2.50
2019-03-09T02:35:15.684Z,4.03
2019-03-09T02:37:45.452Z,1.97
2019-03-09T02:40:18.228Z,5.03
2019-03-09T02:42:47.939Z,3.63
2019-03-09T02:45:18.059Z,4.57
2019-03-09T02:47:47.896Z,3.33
2019-03-09T02:50:17.744Z,2.17
2019-03-09T02:52:47.455Z,3.53
2019-03-09T02:55:17.206Z,2.97
2019-03-09T02:57:46.951Z,1.90
2019-03-09T03:00:17.600Z,2.07
2019-03-09T03:02:58.980Z,2.43
2019-03-09T03:05:28.830Z,2.83
2019-03-09T03:07:58.587Z,1.03
2019-03-09T03:10:28.598Z,1.70
2019-03-09T03:12:58.344Z,1.90
2019-03-09T03:15:32.813Z,1.90
2019-03-09T03:18:03.221Z,1.63
2019-03-09T03:20:32.963Z,1.17
2019-03-09T03:23:03.116Z,1.40
2019-03-09T03:25:32.853Z,1.03
2019-03-09T03:28:02.561Z,1.63
2019-03-09T03:30:32.317Z,1.67
2019-03-09T03:33:02.040Z,0.60
2019-03-09T03:35:31.763Z,0.70
2019-03-09T03:38:01.936Z,0.53
2019-03-09T03:40:31.661Z,1.40
2019-03-09T03:43:01.343Z,0.97
2019-03-09T03:45:31.100Z,1.60
2019-03-09T03:48:00.789Z,1.33
2019-03-09T03:50:30.576Z,1.07
2019-03-09T03:53:00.257Z,2.17
2019-03-09T03:55:29.966Z,1.63
2019-03-09T03:57:59.661Z,0.90
2019-03-09T04:00:29.423Z,2.07
2019-03-09T04:02:59.216Z,1.00
2019-03-09T04:05:29.015Z,0.50
2019-03-09T04:07:58.695Z,0.83
2019-03-09T04:10:28.587Z,0.60
2019-03-09T04:12:58.788Z,0.70
2019-03-09T04:15:28.539Z,0.50
2019-03-09T04:17:58.237Z,1.13
2019-03-09T04:20:27.921Z,0.83
2019-03-09T04:22:57.584Z,0.60
2019-03-09T04:25:27.276Z,0.60
2019-03-09T04:27:56.967Z,0.50
2019-03-09T04:30:26.806Z,0.40
2019-03-09T04:32:56.505Z,0.50
2019-03-09T04:35:26.255Z,0.53
2019-03-09T04:37:55.938Z,0.43
2019-03-09T04:40:26.055Z,1.07
2019-03-09T04:42:55.730Z,0.50
2019-03-09T04:45:25.458Z,0.57
2019-03-09T04:47:55.103Z,0.33
2019-03-09T04:50:24.847Z,0.60
2019-03-09T04:52:54.784Z,0.43
2019-03-09T04:55:24.534Z,0.30
2019-03-09T04:57:54.178Z,0.30
2019-03-09T05:00:23.879Z,0.50
2019-03-09T05:02:53.615Z,0.50
2019-03-09T05:05:23.309Z,0.40
2019-03-09T05:08:34.184Z,0.40
2019-03-09T05:11:10.334Z,1.37
2019-03-09T05:13:46.845Z,0.60
2019-03-09T05:16:16.618Z,0.40
2019-03-09T05:18:46.270Z,0.30
2019-03-09T05:21:16.021Z,0.37
2019-03-09T05:23:45.677Z,0.30
2019-03-09T05:26:15.398Z,0.30
2019-03-09T05:28:45.103Z,0.50
2019-03-09T05:31:14.844Z,0.50
2019-03-09T05:33:44.499Z,3.17
2019-03-09T05:36:14.259Z,1.13
2019-03-09T05:38:43.907Z,2.33
2019-03-09T05:41:13.614Z,0.50
2019-03-09T05:43:43.315Z,0.40
2019-03-09T05:46:13.046Z,0.40
2019-03-09T05:48:42.804Z,1.27
2019-03-09T05:51:13.205Z,1.53
2019-03-09T05:53:42.885Z,0.73
2019-03-09T05:56:12.652Z,0.50
2019-03-09T05:58:42.355Z,0.60
2019-03-09T06:01:12.087Z,1.10
2019-03-09T06:03:41.951Z,1.00
2019-03-09T06:06:13.893Z,0.70
2019-03-09T06:08:43.788Z,1.53
2019-03-09T06:11:13.547Z,0.70
2019-03-09T06:13:43.246Z,0.60
2019-03-09T06:16:12.974Z,0.97
2019-03-09T06:18:42.724Z,1.07
2019-03-09T06:21:12.475Z,0.83
2019-03-09T06:23:42.175Z,0.70
2019-03-09T06:26:11.927Z,0.80
2019-03-09T06:28:41.615Z,0.93
2019-03-09T06:31:11.342Z,1.50
2019-03-09T06:33:41.978Z,1.27
2019-03-09T06:36:57.579Z,1.30
2019-03-09T06:39:47.679Z,1.50
2019-03-09T06:42:43.620Z,1.27
2019-03-09T06:45:15.280Z,1.60
2019-03-09T06:47:45.020Z,4.47
2019-03-09T06:50:19.186Z,1.47
2019-03-09T06:52:48.911Z,1.93
2019-03-09T06:55:18.677Z,1.77
2019-03-09T06:57:48.398Z,1.30
2019-03-09T07:00:43.686Z,2.13
2019-03-09T07:03:13.615Z,1.10
2019-03-09T07:05:43.267Z,2.07
2019-03-09T07:08:12.992Z,1.40
2019-03-09T07:10:42.750Z,1.30
2019-03-09T07:13:12.491Z,1.23
2019-03-09T07:15:43.848Z,1.00
2019-03-09T07:18:21.266Z,1.57
2019-03-09T07:20:50.947Z,1.07
2019-03-09T07:23:20.672Z,1.20
2019-03-09T07:25:50.374Z,1.97
2019-03-09T07:28:20.078Z,1.73
2019-03-09T07:30:49.752Z,1.50
2019-03-09T07:33:19.471Z,1.03
2019-03-09T07:35:49.237Z,1.87
2019-03-09T07:38:19.045Z,1.67
2019-03-09T07:40:48.998Z,2.37
2019-03-09T07:43:18.727Z,1.00
2019-03-09T07:45:48.406Z,2.13
2019-03-09T07:48:18.205Z,1.53
2019-03-09T07:50:47.925Z,2.77
2019-03-09T07:53:17.652Z,1.27
2019-03-09T07:55:50.083Z,1.77
2019-03-09T07:58:19.839Z,2.27
2019-03-09T08:00:49.501Z,2.13
2019-03-09T08:03:19.131Z,1.77
2019-03-09T08:05:48.782Z,3.13
2019-03-09T08:08:18.524Z,4.70
2019-03-09T08:10:48.198Z,1.60
2019-03-09T08:13:17.926Z,2.47
2019-03-09T08:15:47.647Z,1.77
2019-03-09T08:18:17.383Z,2.43
2019-03-09T08:20:47.091Z,2.33
2019-03-09T08:23:16.811Z,1.60
2019-03-09T08:25:46.551Z,1.87
2019-03-09T08:28:17.896Z,2.40
2019-03-09T08:30:47.609Z,2.10
2019-03-09T08:33:17.504Z,3.20
2019-03-09T08:35:47.233Z,2.17
2019-03-09T08:38:16.952Z,2.10
2019-03-09T08:40:46.646Z,1.57
2019-03-09T08:43:16.400Z,1.80
2019-03-09T08:45:46.047Z,3.70
2019-03-09T08:48:15.805Z,2.10
2019-03-09T08:50:45.469Z,2.60
2019-03-09T08:53:15.222Z,3.07
2019-03-09T08:55:44.940Z,2.67
2019-03-09T08:58:14.692Z,1.30
2019-03-09T09:00:44.507Z,2.77
2019-03-09T09:03:14.239Z,3.67
2019-03-09T09:05:44.689Z,2.77
2019-03-09T09:08:14.760Z,2.07
2019-03-09T09:10:44.471Z,3.17
2019-03-09T09:13:14.222Z,4.63
2019-03-09T09:15:43.894Z,5.70
2019-03-09T09:18:14.391Z,3.60
2019-03-09T09:20:44.076Z,3.73
2019-03-09T09:23:13.806Z,4.00
2019-03-09T09:25:44.644Z,4.40
2019-03-09T09:28:14.395Z,2.53
2019-03-09T09:30:44.147Z,2.47
2019-03-09T09:33:13.880Z,3.67
2019-03-09T09:35:43.598Z,3.80
2019-03-09T09:38:13.500Z,3.50
2019-03-09T09:40:43.199Z,3.27
2019-03-09T09:43:13.090Z,4.53
2019-03-09T09:45:45.735Z,5.47
2019-03-09T09:48:15.572Z,3.77
2019-03-09T09:50:45.290Z,3.00
2019-03-09T09:53:15.027Z,5.10
2019-03-09T09:55:44.846Z,5.90
2019-03-09T09:58:14.634Z,2.90
2019-03-09T10:00:44.451Z,3.40
2019-03-09T10:03:14.146Z,3.77
2019-03-09T10:05:43.836Z,2.67
2019-03-09T10:08:13.727Z,2.93
2019-03-09T10:10:43.723Z,2.97
2019-03-09T10:13:13.600Z,1.73
2019-03-09T10:15:43.434Z,1.77
2019-03-09T10:18:13.146Z,4.37
2019-03-09T10:20:44.943Z,2.30
2019-03-09T10:23:14.270Z,2.03
2019-03-09T10:25:44.032Z,1.83
2019-03-09T10:28:13.875Z,1.57
2019-03-09T10:30:43.626Z,2.03
2019-03-09T10:33:13.382Z,1.83
2019-03-09T10:35:43.080Z,1.63
2019-03-09T10:38:12.867Z,1.33
2019-03-09T10:40:46.389Z,1.70
2019-03-09T10:43:16.311Z,1.63
2019-03-09T10:45:45.999Z,3.03
2019-03-09T10:48:15.739Z,2.37
2019-03-09T10:50:45.626Z,2.07
2019-03-09T10:53:15.421Z,3.30
2019-03-09T10:55:45.173Z,1.57
2019-03-09T10:58:15.013Z,1.40
2019-03-09T11:00:44.773Z,0.70
2019-03-09T11:03:14.491Z,2.10
2019-03-09T11:05:47.352Z,1.70
2019-03-09T11:08:17.122Z,1.87
2019-03-09T11:10:46.815Z,1.63
2019-03-09T11:13:16.511Z,2.07
2019-03-09T11:15:46.379Z,1.20
2019-03-09T11:18:16.086Z,1.30
2019-03-09T11:20:45.803Z,1.87
2019-03-09T11:23:15.531Z,1.87
2019-03-09T11:25:45.385Z,1.53
2019-03-09T11:28:15.106Z,1.73
2019-03-09T11:30:44.919Z,2.17
2019-03-09T11:33:14.730Z,1.87
2019-03-09T11:35:44.439Z,1.10
2019-03-09T11:38:14.199Z,2.23
2019-03-09T11:40:43.928Z,1.27
2019-03-09T11:43:13.647Z,1.37
2019-03-09T11:45:43.364Z,1.83
2019-03-09T11:48:13.086Z,1.37
2019-03-09T11:50:42.835Z,1.70
2019-03-09T11:53:12.684Z,2.03
2019-03-09T11:55:42.650Z,1.40
2019-03-09T11:58:15.538Z,1.40
2019-03-09T12:00:45.751Z,2.00
2019-03-09T12:03:15.779Z,1.83
2019-03-09T12:05:47.047Z,2.47
2019-03-09T12:08:16.874Z,1.90
2019-03-09T12:10:46.839Z,1.43
2019-03-09T12:13:16.756Z,2.20
2019-03-09T12:15:46.587Z,1.90
2019-03-09T12:18:19.014Z,1.73
2019-03-09T12:20:48.815Z,1.40
2019-03-09T12:23:23.060Z,1.40
2019-03-09T12:25:53.182Z,2.00
2019-03-09T12:28:22.891Z,1.80
2019-03-09T12:30:52.685Z,1.50
2019-03-09T12:33:22.440Z,1.63
2019-03-09T12:35:52.167Z,1.67
2019-03-09T12:38:21.907Z,1.57
2019-03-09T12:40:51.620Z,1.60
2019-03-09T12:43:21.393Z,1.73
2019-03-09T12:45:51.296Z,1.67
2019-03-09T12:48:21.270Z,1.40
2019-03-09T12:50:51.234Z,1.93
2019-03-09T12:53:21.071Z,1.67
2019-03-09T12:55:50.930Z,2.83
2019-03-09T12:58:20.779Z,1.30
2019-03-09T13:00:53.866Z,1.20
2019-03-09T13:03:23.599Z,1.20
2019-03-09T13:05:53.500Z,2.13
2019-03-09T13:08:23.673Z,1.17
2019-03-09T13:10:55.833Z,1.67
2019-03-09T13:13:25.295Z,1.13
2019-03-09T13:15:55.179Z,1.43
2019-03-09T13:18:25.175Z,1.37
2019-03-09T13:20:54.931Z,1.30
2019-03-09T13:23:24.910Z,1.30
2019-03-09T13:25:54.947Z,1.47
2019-03-09T13:28:24.874Z,1.53
2019-03-09T13:30:54.837Z,1.40
2019-03-09T13:33:24.645Z,2.43
2019-03-09T13:35:54.691Z,1.67
2019-03-09T13:38:24.736Z,1.20
2019-03-09T13:40:54.754Z,1.90
2019-03-09T13:43:24.791Z,2.17
2019-03-09T13:45:54.714Z,2.80
2019-03-09T13:48:24.645Z,2.67
2019-03-09T13:50:55.642Z,1.93
2019-03-09T13:53:25.461Z,2.43
2019-03-09T13:55:55.359Z,3.90
2019-03-09T13:58:25.198Z,2.60
2019-03-09T14:00:55.163Z,2.03
2019-03-09T14:03:25.125Z,2.70
2019-03-09T14:05:55.099Z,2.43
2019-03-09T14:08:25.017Z,3.57
2019-03-09T14:10:55.007Z,3.97
2019-03-09T14:13:24.883Z,3.30
2019-03-09T14:15:56.512Z,3.77
2019-03-09T14:18:26.494Z,3.93
2019-03-09T14:20:56.504Z,6.30
2019-03-09T14:23:26.440Z,5.33
2019-03-09T14:25:56.393Z,4.50
2019-03-09T14:28:26.584Z,6.20
2019-03-09T14:30:56.766Z,7.50
2019-03-09T14:33:28.848Z,10.83
2019-03-09T14:35:58.311Z,9.13
2019-03-09T14:38:30.811Z,9.03
2019-03-09T14:41:00.808Z,9.20
2019-03-09T14:43:30.883Z,9.73
2019-03-09T14:46:00.854Z,8.77
2019-03-09T14:48:30.731Z,12.97
2019-03-09T14:51:00.683Z,12.77
2019-03-09T14:53:30.654Z,18.60
2019-03-09T14:56:00.826Z,10.07
2019-03-09T14:58:30.854Z,13.83
2019-03-09T15:01:00.951Z,10.70
2019-03-09T15:03:30.952Z,9.63
2019-03-09T15:06:01.075Z,14.83
2019-03-09T15:08:31.103Z,9.80
2019-03-09T15:11:01.285Z,10.77
2019-03-09T15:13:31.796Z,13.20
2019-03-09T15:16:02.035Z,13.00
2019-03-09T15:18:32.071Z,7.67
2019-03-09T15:21:02.136Z,9.17
2019-03-09T15:23:32.274Z,8.23
2019-03-09T15:26:02.233Z,13.97
2019-03-09T15:28:33.959Z,8.93
2019-03-09T15:31:04.024Z,11.27
2019-03-09T15:33:34.068Z,12.80
2019-03-09T15:36:05.115Z,11.27
2019-03-09T15:38:35.486Z,14.20
2019-03-09T15:41:05.727Z,10.80
2019-03-09T15:43:36.156Z,10.67
2019-03-09T15:46:06.420Z,10.37
2019-03-09T15:48:36.366Z,11.93
2019-03-09T15:51:06.568Z,10.63
2019-03-09T15:53:36.583Z,12.93
2019-03-09T15:56:06.886Z,12.20
2019-03-09T15:58:37.277Z,9.43
2019-03-09T16:01:10.540Z,10.97
2019-03-09T16:03:40.545Z,10.07
2019-03-09T16:06:11.694Z,12.73
2019-03-09T16:08:42.085Z,13.53
2019-03-09T16:11:12.274Z,10.07
2019-03-09T16:13:42.269Z,12.83
2019-03-09T16:16:12.307Z,12.07
2019-03-09T16:18:45.064Z,9.53
2019-03-09T16:21:15.260Z,13.33
2019-03-09T16:23:45.379Z,11.17
2019-03-09T16:26:15.605Z,10.27
2019-03-09T16:28:45.655Z,13.13
2019-03-09T16:31:15.772Z,10.53
2019-03-09T16:33:45.826Z,10.60
2019-03-09T16:36:15.888Z,11.50
2019-03-09T16:38:45.888Z,14.03
2019-03-09T16:41:16.176Z,11.97
2019-03-09T16:43:46.225Z,11.43
2019-03-09T16:46:16.762Z,11.00
2019-03-09T16:48:46.753Z,17.80
2019-03-09T16:51:16.781Z,9.97
2019-03-09T16:53:46.845Z,15.87
2019-03-09T16:56:17.061Z,23.87
2019-03-09T16:58:48.531Z,13.17
2019-03-09T17:01:18.614Z,11.97
2019-03-09T17:03:48.620Z,11.30
2019-03-09T17:06:18.745Z,9.90
2019-03-09T17:08:48.753Z,5.67
2019-03-09T17:11:18.804Z,6.40
2019-03-09T17:13:49.013Z,9.53
2019-03-09T17:16:22.758Z,9.70
2019-03-09T17:18:52.732Z,8.33
2019-03-09T17:21:25.281Z,8.83
2019-03-09T17:23:55.319Z,7.23
2019-03-09T17:26:25.363Z,8.53
2019-03-09T17:28:55.402Z,8.13
2019-03-09T17:31:25.568Z,10.83
2019-03-09T17:33:55.606Z,9.63
2019-03-09T17:36:25.690Z,11.03
2019-03-09T17:38:55.928Z,10.60
2019-03-09T17:41:25.930Z,12.70
2019-03-09T17:43:56.340Z,9.27
2019-03-09T17:46:27.301Z,12.17
2019-03-09T17:48:57.918Z,16.90
2019-03-09T17:51:28.126Z,16.23
2019-03-09T17:53:58.203Z,12.20
2019-03-09T17:56:28.204Z,9.50
2019-03-09T17:58:58.194Z,13.47
2019-03-09T18:01:28.219Z,12.83
2019-03-09T18:03:58.236Z,14.57
2019-03-09T18:06:28.378Z,13.87
2019-03-09T18:08:58.507Z,11.30
2019-03-09T18:11:28.591Z,15.40
2019-03-09T18:14:06.646Z,11.87
2019-03-09T18:16:30.904Z,14.23
2019-03-09T18:19:00.903Z,13.97
2019-03-09T18:21:31.039Z,16.17
2019-03-09T18:24:01.144Z,16.40
2019-03-09T18:26:31.250Z,10.33
2019-03-09T18:29:01.674Z,14.47
2019-03-09T18:31:31.683Z,12.30
2019-03-09T18:34:01.724Z,13.53
2019-03-09T18:36:31.806Z,13.50
2019-03-09T18:39:01.803Z,14.57
2019-03-09T18:41:31.856Z,16.70
2019-03-09T18:44:01.875Z,15.63
2019-03-09T18:46:32.002Z,11.07
2019-03-09T18:49:02.719Z,16.57
2019-03-09T18:51:32.800Z,12.93
2019-03-09T18:54:02.846Z,10.93
2019-03-09T18:56:32.863Z,17.30
2019-03-09T18:59:02.894Z,14.97
2019-03-09T19:01:32.909Z,17.67
2019-03-09T19:04:06.063Z,13.83
2019-03-09T19:06:36.681Z,13.47
2019-03-09T19:09:09.815Z,18.17
2019-03-09T19:11:39.774Z,20.57
2019-03-09T19:14:09.880Z,18.93
2019-03-09T19:16:39.887Z,14.23
2019-03-09T19:19:09.943Z,19.00
2019-03-09T19:21:39.925Z,17.83
2019-03-09T19:24:09.854Z,19.90
2019-03-09T19:26:39.845Z,17.70
2019-03-09T19:29:09.879Z,18.03
2019-03-09T19:31:40.011Z,25.43
2019-03-09T19:34:10.125Z,24.60
2019-03-09T19:36:40.177Z,20.60
2019-03-09T19:39:11.618Z,29.37
2019-03-09T19:41:41.619Z,17.17
2019-03-09T19:44:11.630Z,19.33
2019-03-09T19:46:41.627Z,17.83
2019-03-09T19:49:11.691Z,18.83
2019-03-09T19:51:41.680Z,24.27
2019-03-09T19:54:11.746Z,19.93
2019-03-09T19:56:41.731Z,14.93
2019-03-09T19:59:11.849Z,23.73
2019-03-09T20:01:42.195Z,19.30
2019-03-09T20:04:12.211Z,16.57
2019-03-09T20:06:42.154Z,18.20
2019-03-09T20:09:12.271Z,22.03
2019-03-09T20:11:42.288Z,22.83
2019-03-09T20:14:12.553Z,17.23
2019-03-09T20:16:42.599Z,18.50
2019-03-09T20:19:12.624Z,15.70
2019-03-09T20:21:42.619Z,18.43
2019-03-09T20:24:12.680Z,17.47
2019-03-09T20:26:42.657Z,21.37
2019-03-09T20:29:12.683Z,17.43
2019-03-09T20:31:42.659Z,17.93
2019-03-09T20:34:12.770Z,16.60
2019-03-09T20:36:42.731Z,22.20
2019-03-09T20:39:13.221Z,20.70
2019-03-09T20:41:43.443Z,18.03
2019-03-09T20:44:13.500Z,15.40
2019-03-09T20:46:43.578Z,21.73
2019-03-09T20:49:13.924Z,17.83
2019-03-09T20:51:43.856Z,20.73
2019-03-09T20:54:13.883Z,13.73
2019-03-09T20:56:43.935Z,17.87
2019-03-09T20:59:13.920Z,20.60
2019-03-09T21:01:43.891Z,20.07
2019-03-09T21:04:13.946Z,12.23
2019-03-09T21:06:43.967Z,15.97
2019-03-09T21:09:14.057Z,14.47
2019-03-09T21:11:43.985Z,14.43
2019-03-09T21:14:14.042Z,22.00
2019-03-09T21:16:44.029Z,15.73
2019-03-09T21:19:14.087Z,16.53
2019-03-09T21:21:44.106Z,20.50
2019-03-09T21:24:14.105Z,13.37
2019-03-09T21:26:44.164Z,16.77
2019-03-09T21:29:14.159Z,13.10
2019-03-09T21:31:44.166Z,15.50
2019-03-09T21:34:14.561Z,17.93
2019-03-09T21:36:44.548Z,18.13
2019-03-09T21:39:14.652Z,17.43
2019-03-09T21:41:44.658Z,19.90
2019-03-09T21:44:14.706Z,14.73
2019-03-09T21:46:44.654Z,17.43
2019-03-09T21:49:14.714Z,19.37
2019-03-09T21:51:44.968Z,13.07
2019-03-09T21:54:14.949Z,21.30
2019-03-09T21:56:44.915Z,18.27
2019-03-09T21:59:14.857Z,19.30
2019-03-09T22:01:44.789Z,15.23
2019-03-09T22:04:14.716Z,19.80
2019-03-09T22:06:44.602Z,20.43
2019-03-09T22:09:14.415Z,13.07
2019-03-09T22:11:44.241Z,13.97
2019-03-09T22:14:14.431Z,17.73
2019-03-09T22:16:44.168Z,18.83
2019-03-09T22:19:14.052Z,15.70
2019-03-09T22:21:44.069Z,16.53
2019-03-09T22:24:14.566Z,16.27
2019-03-09T22:26:44.522Z,15.30
2019-03-09T22:29:14.246Z,14.70
2019-03-09T22:31:43.971Z,20.50
2019-03-09T22:34:13.737Z,20.60
2019-03-09T22:36:43.457Z,16.47
2019-03-09T22:39:13.231Z,15.47
2019-03-09T22:41:42.940Z,18.90
2019-03-09T22:44:12.659Z,16.47
2019-03-09T22:46:42.367Z,18.57
2019-03-09T22:49:12.397Z,21.43
2019-03-09T22:51:42.117Z,19.73
2019-03-09T22:54:11.880Z,23.63
2019-03-09T22:56:41.616Z,19.47
2019-03-09T22:59:11.303Z,22.43
2019-03-09T23:01:41.032Z,18.70
2019-03-09T23:04:10.791Z,25.10
2019-03-09T23:06:40.461Z,19.47
2019-03-09T23:09:10.200Z,22.23
2019-03-09T23:11:39.824Z,19.13
2019-03-09T23:14:09.571Z,19.67
2019-03-09T23:16:39.244Z,22.23
2019-03-09T23:19:08.922Z,24.13
2019-03-09T23:21:38.717Z,22.13
2019-03-09T23:24:09.369Z,22.00
2019-03-09T23:26:39.067Z,17.40
2019-03-09T23:29:08.783Z,26.93
2019-03-09T23:31:38.494Z,18.37
2019-03-09T23:34:08.200Z,20.53
2019-03-09T23:36:37.964Z,16.47
2019-03-09T23:39:08.032Z,24.30
2019-03-09T23:41:37.836Z,23.33
2019-03-09T23:44:07.484Z,22.53
2019-03-09T23:46:37.332Z,23.43
2019-03-09T23:49:07.077Z,17.87
2019-03-09T23:51:36.851Z,22.43
2019-03-09T23:54:06.528Z,19.63
2019-03-09T23:56:36.256Z,20.63
2019-03-09T23:59:05.996Z,23.77
